Time;durP1;ratioP1;P1;durP2;ratioP2;P2;SDS_P1;SDS_P2;PMS_P1;PMS_P2;Temp;Humidity;BMP_temperature;BMP_pressure;BME280_temperature;BME280_humidity;BME280_pressure;Samples;Min_cycle;Max_cycle;Signal;HPM_P1;HPM_P2
2022/11/27 00:01:50;;;;;;;23.13;8.40;;;7.40;99.90;;;;;;4893227;29;39697;-73
2022/11/27 00:04:16;;;;;;;19.30;7.27;;;7.40;99.90;;;;;;4890449;29;38165;-74
2022/11/27 00:06:42;;;;;;;25.97;7.97;;;7.40;99.90;;;;;;4889744;29;36818;-74
2022/11/27 00:09:12;;;;;;;20.83;8.40;;;7.50;99.90;;;;;;4891332;29;35616;-74
2022/11/27 00:11:39;;;;;;;19.20;8.00;;;7.50;99.90;;;;;;4874148;29;37584;-74
2022/11/27 00:14:05;;;;;;;25.47;8.67;;;7.50;99.90;;;;;;4875117;29;37605;-73
2022/11/27 00:16:32;;;;;;;22.93;9.87;;;7.50;99.90;;;;;;4891059;29;38361;-74
2022/11/27 00:18:58;;;;;;;28.63;8.27;;;7.50;99.90;;;;;;4889662;29;38140;-74
2022/11/27 00:21:27;;;;;;;33.87;10.40;;;7.50;99.90;;;;;;4885246;29;37520;-75
2022/11/27 00:23:55;;;;;;;29.13;11.10;;;7.50;99.90;;;;;;4876936;29;37512;-74
2022/11/27 00:26:22;;;;;;;19.60;7.33;;;7.40;99.90;;;;;;4875996;29;37423;-74
2022/11/27 00:28:49;;;;;;;18.97;6.13;;;7.40;99.90;;;;;;4877111;29;37321;-75
2022/11/27 00:31:27;;;;;;;20.90;6.27;;;7.40;99.90;;;;;;4870835;29;38535;-74
2022/11/27 00:33:54;;;;;;;17.80;6.67;;;7.50;99.90;;;;;;4878741;29;42242;-73
2022/11/27 00:36:20;;;;;;;16.03;6.50;;;7.40;99.90;;;;;;4891480;29;37519;-73
2022/11/27 00:38:46;;;;;;;19.33;5.57;;;7.50;99.90;;;;;;4886325;29;36922;-73
2022/11/27 00:41:18;;;;;;;20.60;7.00;;;7.40;99.90;;;;;;4876075;29;38589;-73
2022/11/27 00:43:45;;;;;;;18.25;6.90;;;7.50;99.90;;;;;;4889002;29;38165;-73
2022/11/27 00:46:32;;;;;;;50.13;21.67;;;7.50;99.90;;;;;;4889861;29;38521;-73
2022/11/27 00:49:01;;;;;;;40.63;17.13;;;7.50;99.90;;;;;;4892051;29;37899;-74
2022/11/27 00:51:27;;;;;;;21.10;9.20;;;7.50;99.90;;;;;;4888690;29;38774;-74
2022/11/27 00:53:54;;;;;;;18.47;6.20;;;7.50;99.90;;;;;;4877813;29;37380;-74
2022/11/27 00:56:29;;;;;;;24.50;6.80;;;7.50;99.90;;;;;;4873352;29;37508;-74
2022/11/27 00:58:56;;;;;;;13.57;5.03;;;7.50;99.90;;;;;;4886168;29;37985;-74
2022/11/27 01:01:40;;;;;;;24.67;6.13;;;7.60;99.90;;;;;;4883562;29;39464;-74
2022/11/27 01:04:09;;;;;;;28.30;7.10;;;7.60;99.90;;;;;;4885291;29;38275;-74
2022/11/27 01:06:36;;;;;;;17.73;5.47;;;7.60;99.90;;;;;;4886520;29;37896;-74
2022/11/27 01:09:03;;;;;;;15.50;5.57;;;7.60;99.90;;;;;;4886312;29;37677;-74
2022/11/27 01:11:32;;;;;;;24.43;5.87;;;7.60;99.90;;;;;;4888622;29;48559;-74
2022/11/27 01:14:05;;;;;;;22.03;5.90;;;7.60;99.90;;;;;;4869385;29;38022;-74
2022/11/27 01:16:32;;;;;;;15.53;5.90;;;7.60;99.90;;;;;;4877392;29;45516;-74
2022/11/27 01:19:00;;;;;;;29.77;6.40;;;7.60;99.90;;;;;;4867235;29;36199;-74
2022/11/27 01:21:29;;;;;;;19.97;6.40;;;7.60;99.90;;;;;;4880951;29;37031;-73
2022/11/27 01:23:56;;;;;;;17.50;5.93;;;7.70;99.90;;;;;;4882298;29;39883;-74
2022/11/27 01:26:22;;;;;;;22.57;6.07;;;7.60;99.90;;;;;;4882334;29;36509;-74
2022/11/27 01:28:51;;;;;;;18.10;5.00;;;7.60;99.90;;;;;;4882573;29;38689;-74
2022/11/27 01:31:24;;;;;;;16.50;5.60;;;7.60;99.90;;;;;;4885864;29;38243;-73
2022/11/27 01:33:58;;;;;;;15.55;5.13;;;7.60;99.90;;;;;;4886104;29;38340;-73
2022/11/27 01:36:25;;;;;;;21.40;7.10;;;7.70;99.90;;;;;;4887177;29;38634;-74
2022/11/27 01:38:51;;;;;;;21.13;6.73;;;7.70;99.90;;;;;;4888608;29;35888;-73
2022/11/27 01:41:30;;;;;;;23.17;5.40;;;7.70;99.90;;;;;;4880997;29;39684;-73
2022/11/27 01:44:01;;;;;;;15.73;5.37;;;7.70;99.90;;;;;;4869709;29;36885;-74
2022/11/27 01:46:33;;;;;;;14.03;5.40;;;7.70;99.90;;;;;;4882542;29;47422;-74
2022/11/27 01:49:16;;;;;;;15.25;5.25;;;7.70;99.90;;;;;;4888829;29;37080;-72
2022/11/27 01:52:01;;;;;;;19.60;5.78;;;7.70;99.90;;;;;;4874933;29;47305;-74
2022/11/27 01:54:46;;;;;;;15.30;5.27;;;7.70;99.90;;;;;;4889212;29;47597;-74
2022/11/27 01:57:25;;;;;;;23.67;6.30;;;7.70;99.90;;;;;;4887103;29;38022;-74
2022/11/27 01:59:53;;;;;;;15.93;4.90;;;7.70;99.90;;;;;;4886631;29;37006;-74
2022/11/27 02:02:19;;;;;;;21.10;5.50;;;7.70;99.90;;;;;;5219530;23;37536;-73
2022/11/27 02:04:45;;;;;;;15.93;4.97;;;7.70;99.90;;;;;;4890894;29;38484;-73
2022/11/27 02:07:11;;;;;;;21.47;5.07;;;7.70;99.90;;;;;;4885702;29;37925;-73
2022/11/27 02:09:38;;;;;;;18.77;6.07;;;7.70;99.90;;;;;;4897016;29;35876;-73
2022/11/27 02:12:30;;;;;;;21.53;5.33;;;7.70;99.90;;;;;;4891395;29;37345;-74
2022/11/27 02:15:01;;;;;;;15.57;5.20;;;7.70;99.90;;;;;;4891039;29;38768;-73
2022/11/27 02:17:48;;;;;;;22.48;5.53;;;7.70;99.90;;;;;;4883282;29;36986;-74
2022/11/27 02:20:55;;;;;;;17.30;5.47;;;7.70;99.90;;;;;;4903173;29;36836;-73
2022/11/27 02:23:51;;;;;;;15.23;4.73;;;7.70;99.90;;;;;;4878311;29;38758;-74
2022/11/27 02:26:29;;;;;;;17.93;5.27;;;7.80;99.90;;;;;;4902525;29;38283;-73
2022/11/27 02:29:06;;;;;;;16.67;4.73;;;7.70;99.90;;;;;;4891799;29;38155;-73
2022/11/27 02:32:02;;;;;;;16.53;4.73;;;7.80;99.90;;;;;;4907231;29;49374;-74
2022/11/27 02:34:43;;;;;;;16.00;4.00;;;7.80;99.90;;;;;;4888400;29;47204;-73
2022/11/27 02:37:12;;;;;;;13.50;4.03;;;7.70;99.90;;;;;;4898008;29;38443;-73
2022/11/27 02:40:02;;;;;;;13.73;4.93;;;7.80;99.90;;;;;;4887729;29;36417;-73
2022/11/27 02:42:35;;;;;;;15.90;4.43;;;7.80;99.90;;;;;;4889094;29;38122;-73
2022/11/27 02:45:12;;;;;;;16.87;5.20;;;7.80;99.90;;;;;;4901370;29;37722;-74
2022/11/27 02:47:41;;;;;;;19.10;4.93;;;7.80;99.90;;;;;;4899289;29;46906;-73
2022/11/27 02:50:15;;;;;;;13.43;4.57;;;7.80;99.90;;;;;;4906598;29;36767;-73
2022/11/27 02:52:43;;;;;;;11.80;4.47;;;7.80;99.90;;;;;;4891471;29;36352;-74
2022/11/27 02:55:14;;;;;;;18.30;4.73;;;7.80;99.90;;;;;;4907737;29;39113;-73
2022/11/27 02:57:41;;;;;;;19.43;4.40;;;7.80;99.90;;;;;;4895498;29;37229;-73
2022/11/27 03:00:09;;;;;;;19.27;4.80;;;7.80;99.90;;;;;;4903103;29;37187;-74
2022/11/27 03:02:41;;;;;;;16.70;5.57;;;7.80;99.90;;;;;;4898846;29;39851;-74
2022/11/27 03:05:12;;;;;;;14.55;4.85;;;7.80;99.90;;;;;;4908921;29;38684;-73
2022/11/27 03:08:03;;;;;;;12.70;3.93;;;7.80;99.90;;;;;;4914454;29;37787;-74
2022/11/27 03:10:34;;;;;;;14.77;3.97;;;7.90;99.90;;;;;;4878768;29;47228;-73
2022/11/27 03:13:02;;;;;;;15.90;5.13;;;7.90;99.90;;;;;;4905654;29;36897;-73
2022/11/27 03:15:40;;;;;;;19.43;4.47;;;7.90;99.90;;;;;;4902375;29;48602;-74
2022/11/27 03:18:27;;;;;;;12.77;3.97;;;7.90;99.90;;;;;;4907389;28;37845;-73
2022/11/27 03:21:02;;;;;;;18.20;4.90;;;7.90;99.90;;;;;;4896803;29;37193;-73
2022/11/27 03:23:29;;;;;;;15.20;4.23;;;7.90;99.90;;;;;;4904452;29;37275;-75
2022/11/27 03:25:55;;;;;;;13.20;4.10;;;7.90;99.90;;;;;;4899615;29;38466;-73
2022/11/27 03:28:22;;;;;;;11.93;4.30;;;7.90;99.90;;;;;;4900127;29;38515;-73
2022/11/27 03:30:48;;;;;;;13.47;4.10;;;7.90;99.90;;;;;;4899246;29;38183;-74
2022/11/27 03:33:14;;;;;;;14.80;4.00;;;7.80;99.90;;;;;;4899808;29;37074;-74
2022/11/27 03:35:40;;;;;;;11.43;3.83;;;7.90;99.90;;;;;;4902678;29;38190;-73
2022/11/27 03:38:06;;;;;;;11.20;4.10;;;7.90;99.90;;;;;;4906961;28;37402;-73
2022/11/27 03:40:44;;;;;;;13.13;3.93;;;7.90;99.90;;;;;;4897964;29;37166;-74
2022/11/27 03:43:21;;;;;;;16.07;4.40;;;7.90;99.90;;;;;;4900976;29;37037;-73
2022/11/27 03:46:07;;;;;;;21.03;4.23;;;7.90;99.90;;;;;;4907686;29;39386;-74
2022/11/27 03:49:01;;;;;;;17.13;4.47;;;8.00;99.90;;;;;;4887010;29;47197;-73
2022/11/27 03:51:56;;;;;;;18.40;4.53;;;8.00;99.90;;;;;;4897949;29;46615;-73
2022/11/27 03:54:52;;;;;;;10.87;4.20;;;8.00;99.90;;;;;;4896707;29;35906;-74
2022/11/27 03:57:33;;;;;;;11.87;3.50;;;8.00;99.90;;;;;;4912168;29;40356;-72
2022/11/27 04:00:03;;;;;;;13.77;3.73;;;8.00;99.90;;;;;;4904895;29;38453;-73
2022/11/27 04:02:38;;;;;;;12.33;3.80;;;8.00;99.90;;;;;;4884324;29;36985;-72
2022/11/27 04:05:05;;;;;;;10.43;3.83;;;8.00;99.90;;;;;;4900583;29;37797;-73
2022/11/27 04:07:31;;;;;;;12.57;4.23;;;8.00;99.90;;;;;;4895432;29;47356;-72
2022/11/27 04:09:57;;;;;;;13.77;3.47;;;8.00;99.90;;;;;;4898859;29;38694;-73
2022/11/27 04:12:23;;;;;;;13.50;4.00;;;7.90;99.90;;;;;;4887290;28;35421;-73
2022/11/27 04:14:49;;;;;;;10.27;4.23;;;7.90;99.90;;;;;;4899827;29;36239;-73
2022/11/27 04:17:15;;;;;;;16.43;4.70;;;7.90;99.90;;;;;;4898926;29;40043;-73
2022/11/27 04:19:41;;;;;;;13.73;3.87;;;7.90;99.90;;;;;;4896240;29;39603;-73
2022/11/27 04:22:07;;;;;;;20.00;5.10;;;7.90;99.90;;;;;;4896662;29;39128;-73
2022/11/27 04:24:33;;;;;;;9.80;3.03;;;7.80;99.90;;;;;;4898446;29;37124;-73
2022/11/27 04:26:59;;;;;;;11.90;3.23;;;7.80;99.90;;;;;;4901691;29;38985;-73
2022/11/27 04:29:25;;;;;;;16.70;3.87;;;7.80;99.90;;;;;;4880480;29;37617;-73
2022/11/27 04:31:51;;;;;;;18.90;4.20;;;7.80;99.90;;;;;;4878384;29;38070;-73
2022/11/27 04:34:17;;;;;;;17.87;3.47;;;7.80;99.90;;;;;;4896675;29;37152;-74
2022/11/27 04:36:45;;;;;;;13.80;3.37;;;7.80;99.90;;;;;;4903977;29;39056;-73
2022/11/27 04:39:12;;;;;;;14.87;3.47;;;7.80;99.90;;;;;;4905182;29;39166;-73
2022/11/27 04:41:38;;;;;;;12.37;4.03;;;7.80;99.90;;;;;;4908653;29;37279;-73
2022/11/27 04:44:04;;;;;;;16.77;3.63;;;7.90;99.90;;;;;;4909548;29;37136;-74
2022/11/27 04:46:31;;;;;;;10.37;3.03;;;7.90;99.90;;;;;;4903587;29;39317;-74
2022/11/27 04:48:57;;;;;;;14.10;3.43;;;7.90;99.90;;;;;;4890785;29;37053;-73
2022/11/27 04:51:23;;;;;;;18.57;5.70;;;7.90;99.90;;;;;;4887444;29;37299;-73
2022/11/27 04:53:49;;;;;;;9.63;3.03;;;7.90;99.90;;;;;;4900058;29;36894;-74
2022/11/27 04:56:15;;;;;;;19.57;4.53;;;7.90;99.90;;;;;;4892296;29;37606;-73
2022/11/27 04:58:41;;;;;;;15.93;3.23;;;7.90;99.90;;;;;;4907055;28;39410;-73
2022/11/27 05:01:08;;;;;;;14.13;3.40;;;7.80;99.90;;;;;;4902231;29;37118;-74
2022/11/27 05:03:35;;;;;;;12.77;3.10;;;7.90;99.90;;;;;;4885171;29;36148;-73
2022/11/27 05:06:01;;;;;;;9.53;3.07;;;7.90;99.90;;;;;;4894721;29;39831;-73
2022/11/27 05:08:29;;;;;;;10.67;3.93;;;7.80;99.90;;;;;;4894526;29;39115;-73
2022/11/27 05:11:00;;;;;;;13.73;3.33;;;7.90;99.90;;;;;;4889556;29;37768;-72
2022/11/27 05:13:26;;;;;;;11.37;3.13;;;7.90;99.90;;;;;;4897551;29;35265;-73
2022/11/27 05:15:53;;;;;;;16.67;4.83;;;7.80;99.90;;;;;;4889950;29;39527;-73
2022/11/27 05:18:19;;;;;;;12.80;3.60;;;7.80;99.90;;;;;;4886766;29;38324;-73
2022/11/27 05:20:45;;;;;;;19.17;4.37;;;7.70;99.90;;;;;;4885274;29;36584;-73
2022/11/27 05:23:11;;;;;;;12.83;4.17;;;7.70;99.90;;;;;;4884799;29;39697;-74
2022/11/27 05:25:38;;;;;;;14.47;4.80;;;7.60;99.90;;;;;;4893035;29;38564;-72
2022/11/27 05:28:04;;;;;;;16.40;4.63;;;7.60;99.90;;;;;;4898340;29;37075;-73
2022/11/27 05:30:30;;;;;;;16.00;4.57;;;7.60;99.90;;;;;;4892470;29;37652;-74
2022/11/27 05:32:56;;;;;;;12.87;4.47;;;7.60;99.90;;;;;;4890926;29;38248;-74
2022/11/27 05:35:22;;;;;;;9.80;3.27;;;7.60;99.90;;;;;;4879546;29;38902;-73
2022/11/27 05:37:48;;;;;;;15.30;3.43;;;7.60;99.90;;;;;;4879740;29;38100;-74
2022/11/27 05:40:14;;;;;;;12.93;2.97;;;7.60;99.90;;;;;;4894144;29;36784;-74
2022/11/27 05:42:40;;;;;;;14.17;3.63;;;7.60;99.90;;;;;;4885164;29;37123;-73
2022/11/27 05:45:07;;;;;;;12.17;3.57;;;7.70;99.90;;;;;;4906832;29;36473;-74
2022/11/27 05:47:33;;;;;;;12.03;3.67;;;7.60;99.90;;;;;;4893929;29;37538;-72
2022/11/27 05:49:59;;;;;;;16.97;3.47;;;7.60;99.90;;;;;;4894046;29;37188;-73
2022/11/27 05:52:25;;;;;;;12.57;3.63;;;7.60;99.90;;;;;;4879918;29;36998;-72
2022/11/27 05:54:51;;;;;;;11.23;3.63;;;7.50;99.90;;;;;;4879905;29;38690;-72
2022/11/27 05:57:17;;;;;;;13.60;4.10;;;7.50;99.90;;;;;;4877181;28;38227;-73
2022/11/27 05:59:43;;;;;;;17.23;4.83;;;7.50;99.90;;;;;;4876634;29;38079;-73
2022/11/27 06:02:09;;;;;;;13.40;4.13;;;7.50;99.90;;;;;;4877209;29;35307;-74
2022/11/27 06:04:35;;;;;;;13.90;4.83;;;7.50;99.90;;;;;;4889968;29;38114;-72
2022/11/27 06:07:01;;;;;;;16.07;4.20;;;7.40;99.90;;;;;;4880988;29;39709;-74
2022/11/27 06:09:30;;;;;;;16.10;4.17;;;7.40;99.90;;;;;;4892058;29;37363;-72
2022/11/27 06:11:56;;;;;;;9.13;3.70;;;7.40;99.90;;;;;;4883544;29;35332;-73
2022/11/27 06:14:23;;;;;;;12.87;3.90;;;7.40;99.90;;;;;;4880358;29;38364;-73
2022/11/27 06:16:49;;;;;;;12.90;4.20;;;7.40;99.90;;;;;;4874256;29;37582;-73
2022/11/27 06:19:15;;;;;;;11.00;4.37;;;7.40;99.90;;;;;;4877405;28;39160;-73
2022/11/27 06:21:41;;;;;;;8.57;3.30;;;7.40;99.90;;;;;;4887468;29;37440;-74
2022/11/27 06:24:07;;;;;;;11.67;4.00;;;7.40;99.90;;;;;;4881438;28;38657;-74
2022/11/27 06:26:33;;;;;;;10.70;3.67;;;7.40;99.90;;;;;;4893567;29;37523;-74
2022/11/27 06:29:00;;;;;;;12.67;4.33;;;7.30;99.90;;;;;;4884446;29;38386;-74
2022/11/27 06:31:29;;;;;;;9.20;3.60;;;7.30;99.90;;;;;;4873324;29;36156;-74
2022/11/27 06:33:56;;;;;;;13.13;4.13;;;7.30;99.90;;;;;;4889354;29;37697;-74
2022/11/27 06:36:32;;;;;;;13.03;4.23;;;7.30;99.90;;;;;;4870569;29;39162;-72
2022/11/27 06:38:58;;;;;;;12.90;4.30;;;7.30;99.90;;;;;;4872300;28;37984;-74
2022/11/27 06:41:25;;;;;;;11.87;3.67;;;7.20;99.90;;;;;;4876842;29;35969;-74
2022/11/27 06:43:52;;;;;;;15.60;5.07;;;7.20;99.90;;;;;;4884713;28;39147;-75
2022/11/27 06:46:21;;;;;;;14.47;4.00;;;7.20;99.90;;;;;;4894753;29;37959;-74
2022/11/27 06:48:48;;;;;;;10.43;4.17;;;7.20;99.90;;;;;;4887047;29;37158;-74
2022/11/27 06:51:17;;;;;;;15.73;4.83;;;7.20;99.90;;;;;;4883782;29;37359;-73
2022/11/27 06:53:43;;;;;;;9.73;4.13;;;7.20;99.90;;;;;;4887513;29;40011;-74
2022/11/27 06:56:12;;;;;;;13.40;4.07;;;7.20;99.90;;;;;;4897601;29;38811;-74
2022/11/27 06:58:39;;;;;;;12.73;4.10;;;7.20;99.90;;;;;;4895423;29;38053;-76
2022/11/27 07:01:08;;;;;;;17.50;3.93;;;7.20;99.90;;;;;;4889429;29;37158;-73
2022/11/27 07:03:34;;;;;;;13.20;4.37;;;7.10;99.90;;;;;;4892141;29;38974;-74
2022/11/27 07:06:03;;;;;;;11.97;4.03;;;7.10;99.90;;;;;;4897987;29;38471;-74
2022/11/27 07:08:30;;;;;;;11.30;3.60;;;7.10;99.90;;;;;;4887131;29;40671;-74
2022/11/27 07:11:04;;;;;;;9.37;3.87;;;7.10;99.90;;;;;;4896421;29;37355;-74
2022/11/27 07:13:30;;;;;;;6.63;3.27;;;7.10;99.90;;;;;;4886373;29;37637;-74
2022/11/27 07:16:04;;;;;;;15.03;4.10;;;7.10;99.90;;;;;;4900861;29;38468;-74
2022/11/27 07:18:33;;;;;;;9.47;3.60;;;7.10;99.90;;;;;;4884626;29;38273;-74
2022/11/27 07:20:59;;;;;;;12.33;3.63;;;7.10;99.90;;;;;;4893709;29;37325;-73
2022/11/27 07:23:25;;;;;;;12.43;4.27;;;7.10;99.90;;;;;;4899051;29;38888;-73
2022/11/27 07:25:52;;;;;;;16.67;4.27;;;7.10;99.90;;;;;;4900183;29;37978;-74
2022/11/27 07:28:18;;;;;;;11.07;4.50;;;7.10;99.90;;;;;;4904272;29;39029;-73
2022/11/27 07:30:44;;;;;;;10.43;4.23;;;7.10;99.90;;;;;;4881049;29;36799;-74
2022/11/27 07:33:10;;;;;;;11.10;3.87;;;7.10;99.90;;;;;;4897154;29;38533;-73
2022/11/27 07:35:36;;;;;;;16.40;4.60;;;7.20;99.90;;;;;;4910360;29;38379;-73
2022/11/27 07:38:02;;;;;;;14.93;4.80;;;7.10;99.90;;;;;;4907742;28;37886;-73
2022/11/27 07:40:28;;;;;;;13.77;4.33;;;7.20;99.90;;;;;;4902759;29;47787;-74
2022/11/27 07:42:54;;;;;;;13.70;4.13;;;7.20;99.90;;;;;;4891275;29;37989;-74
2022/11/27 07:45:20;;;;;;;11.70;4.40;;;7.20;99.90;;;;;;4906034;29;38394;-73
2022/11/27 07:47:46;;;;;;;15.97;4.67;;;7.20;99.90;;;;;;4899245;29;37541;-73
2022/11/27 07:50:12;;;;;;;11.50;4.47;;;7.20;99.90;;;;;;4910512;29;37749;-74
2022/11/27 07:52:38;;;;;;;10.23;4.60;;;7.20;99.90;;;;;;4910666;29;38519;-73
2022/11/27 07:55:04;;;;;;;12.27;4.90;;;7.20;99.90;;;;;;4899423;29;37369;-74
2022/11/27 07:57:30;;;;;;;10.07;4.30;;;7.30;99.90;;;;;;4920006;29;37895;-74
2022/11/27 07:59:56;;;;;;;12.67;5.17;;;7.30;99.90;;;;;;4905275;29;35862;-73
2022/11/27 08:02:23;;;;;;;12.57;4.40;;;7.30;99.90;;;;;;4903449;29;38526;-73
2022/11/27 08:04:49;;;;;;;10.83;5.30;;;7.30;99.90;;;;;;4906378;29;35539;-73
2022/11/27 08:07:15;;;;;;;6.67;4.20;;;7.30;99.90;;;;;;4899681;29;37771;-73
2022/11/27 08:09:41;;;;;;;11.80;4.53;;;7.30;99.90;;;;;;4897812;29;37381;-73
2022/11/27 08:12:08;;;;;;;12.43;4.60;;;7.20;99.90;;;;;;4908432;29;20449;-72
2022/11/27 08:14:34;;;;;;;15.73;5.23;;;7.30;99.90;;;;;;4911174;29;38350;-74
2022/11/27 08:17:00;;;;;;;18.23;5.23;;;7.20;99.90;;;;;;4896071;29;37163;-74
2022/11/27 08:19:26;;;;;;;10.63;4.90;;;7.30;99.90;;;;;;4890779;29;36314;-73
2022/11/27 08:21:52;;;;;;;15.60;5.53;;;7.30;99.90;;;;;;4903319;29;39952;-72
2022/11/27 08:24:18;;;;;;;9.63;4.83;;;7.30;99.90;;;;;;4906229;28;37039;-71
2022/11/27 08:26:44;;;;;;;9.57;4.70;;;7.30;99.90;;;;;;4917661;29;38888;-71
2022/11/27 08:29:11;;;;;;;11.53;5.03;;;7.30;99.90;;;;;;4883626;29;36438;-72
2022/11/27 08:31:37;;;;;;;14.33;5.00;;;7.30;99.90;;;;;;4881401;29;37992;-73
2022/11/27 08:34:04;;;;;;;15.63;6.93;;;7.30;99.90;;;;;;4888416;29;38030;-71
2022/11/27 08:36:30;;;;;;;16.80;6.77;;;7.30;99.90;;;;;;4892380;29;36828;-72
2022/11/27 08:38:56;;;;;;;11.37;5.53;;;7.30;99.90;;;;;;4890183;29;37131;-72
2022/11/27 08:41:22;;;;;;;16.43;6.20;;;7.30;99.90;;;;;;4901571;29;37648;-73
2022/11/27 08:43:48;;;;;;;15.50;6.20;;;7.30;99.90;;;;;;4914277;29;38185;-73
2022/11/27 08:46:14;;;;;;;13.00;5.50;;;7.30;99.90;;;;;;4902906;29;38410;-72
2022/11/27 08:48:40;;;;;;;13.83;5.83;;;7.30;99.90;;;;;;4905384;29;36677;-72
2022/11/27 08:51:09;;;;;;;13.60;6.53;;;7.30;99.90;;;;;;4899371;29;37610;-72
2022/11/27 08:53:36;;;;;;;14.83;5.97;;;7.30;99.90;;;;;;4908434;29;37361;-72
2022/11/27 08:56:15;;;;;;;14.20;6.57;;;7.30;99.90;;;;;;4906960;29;37179;-72
2022/11/27 08:58:42;;;;;;;15.13;6.67;;;7.30;99.90;;;;;;4881856;29;47172;-72
2022/11/27 09:01:23;;;;;;;13.40;7.43;;;7.30;99.90;;;;;;4888757;29;37602;-72
2022/11/27 09:03:51;;;;;;;17.43;6.17;;;7.30;99.90;;;;;;4910622;29;38205;-73
2022/11/27 09:06:20;;;;;;;13.93;5.97;;;7.30;99.90;;;;;;4896069;29;38157;-73
2022/11/27 09:08:47;;;;;;;16.00;5.90;;;7.30;99.90;;;;;;4906505;29;37391;-73
2022/11/27 09:11:15;;;;;;;14.77;6.30;;;7.30;99.90;;;;;;4887969;29;37805;-73
2022/11/27 09:13:41;;;;;;;18.97;6.50;;;7.30;99.90;;;;;;4896041;29;39346;-72
2022/11/27 09:16:10;;;;;;;14.03;6.30;;;7.30;99.90;;;;;;4908623;29;38224;-73
2022/11/27 09:18:37;;;;;;;15.00;7.33;;;7.30;99.90;;;;;;4909461;29;38342;-72
2022/11/27 09:21:06;;;;;;;13.63;6.40;;;7.30;99.90;;;;;;4906284;29;39202;-72
2022/11/27 09:23:33;;;;;;;13.33;6.70;;;7.30;99.90;;;;;;4903635;29;49239;-72
2022/11/27 09:26:00;;;;;;;14.67;6.63;;;7.30;99.90;;;;;;4894023;29;37313;-74
2022/11/27 09:28:27;;;;;;;15.50;6.53;;;7.30;99.90;;;;;;4902577;29;38589;-73
2022/11/27 09:30:55;;;;;;;14.97;6.60;;;7.30;99.90;;;;;;4892112;29;37977;-73
2022/11/27 09:33:29;;;;;;;17.43;6.73;;;7.30;99.90;;;;;;4892277;29;38067;-73
2022/11/27 09:35:55;;;;;;;15.80;7.63;;;7.30;99.90;;;;;;4899207;29;37974;-73
2022/11/27 09:38:24;;;;;;;15.43;6.73;;;7.30;99.90;;;;;;4898428;29;37086;-72
2022/11/27 09:40:54;;;;;;;14.47;7.83;;;7.30;99.90;;;;;;4884478;29;37927;-72
2022/11/27 09:43:29;;;;;;;18.17;6.77;;;7.30;99.90;;;;;;4898441;29;37787;-72
2022/11/27 09:46:02;;;;;;;19.53;8.33;;;7.30;99.90;;;;;;4906215;29;37428;-72
2022/11/27 09:48:40;;;;;;;18.50;8.73;;;7.30;99.90;;;;;;4897683;29;38478;-72
2022/11/27 09:51:15;;;;;;;15.77;7.73;;;7.30;99.90;;;;;;4906756;29;39103;-72
2022/11/27 09:53:48;;;;;;;23.00;8.20;;;7.30;99.90;;;;;;4892443;29;37178;-72
2022/11/27 09:56:17;;;;;;;12.77;7.77;;;7.30;99.90;;;;;;4889070;29;37426;-71
2022/11/27 09:58:54;;;;;;;13.30;7.03;;;7.40;99.90;;;;;;4898814;29;36462;-72
2022/11/27 10:01:25;;;;;;;13.57;6.73;;;7.30;99.90;;;;;;4896035;29;37529;-71
2022/11/27 10:03:52;;;;;;;16.57;6.87;;;7.30;99.90;;;;;;4913770;29;38709;-73
2022/11/27 10:06:31;;;;;;;18.00;7.43;;;7.40;99.90;;;;;;4886754;29;36997;-72
2022/11/27 10:09:26;;;;;;;15.17;7.57;;;7.40;99.90;;;;;;4904133;29;35659;-73
2022/11/27 10:12:01;;;;;;;18.27;7.50;;;7.40;99.90;;;;;;4886005;29;48382;-72
2022/11/27 10:14:39;;;;;;;14.43;7.93;;;7.50;99.90;;;;;;4890302;29;37767;-73
2022/11/27 10:17:14;;;;;;;15.53;8.13;;;7.50;99.90;;;;;;4879500;29;36609;-73
2022/11/27 10:20:01;;;;;;;12.23;6.80;;;7.50;99.90;;;;;;4907360;29;36284;-73
2022/11/27 10:22:58;;;;;;;17.57;7.40;;;7.50;99.90;;;;;;4909513;29;38527;-73
2022/11/27 10:25:40;;;;;;;17.30;7.27;;;7.50;99.90;;;;;;4900844;29;37899;-73
2022/11/27 10:28:09;;;;;;;20.67;7.78;;;7.50;99.90;;;;;;4902392;29;39003;-72
2022/11/27 10:31:02;;;;;;;19.17;7.87;;;7.50;99.90;;;;;;4900113;29;36059;-74
2022/11/27 10:33:45;;;;;;;18.92;7.22;;;7.50;99.90;;;;;;4906823;29;39317;-73
2022/11/27 10:36:20;;;;;;;15.75;7.57;;;7.50;99.90;;;;;;4900632;29;38461;-72
2022/11/27 10:38:47;;;;;;;15.23;7.63;;;7.50;99.90;;;;;;4912601;29;38504;-73
2022/11/27 10:41:23;;;;;;;15.20;7.27;;;7.60;99.90;;;;;;4913424;29;37106;-73
2022/11/27 10:43:54;;;;;;;16.53;7.07;;;7.50;99.90;;;;;;4891853;29;38859;-73
2022/11/27 10:46:30;;;;;;;17.13;7.03;;;7.50;99.90;;;;;;4890931;29;37242;-73
2022/11/27 10:48:57;;;;;;;20.87;8.47;;;7.50;99.90;;;;;;4902014;29;37718;-72
2022/11/27 10:51:35;;;;;;;16.57;7.97;;;7.50;99.90;;;;;;4886578;29;36513;-72
2022/11/27 10:54:04;;;;;;;21.60;10.70;;;7.50;99.90;;;;;;4904815;29;39485;-72
2022/11/27 10:56:47;;;;;;;23.93;10.67;;;7.50;99.90;;;;;;4885831;29;47618;-73
2022/11/27 10:59:20;;;;;;;;;;;7.50;99.90;;;;;;4906755;29;37351;-71
2022/11/27 11:01:48;;;;;;;17.97;7.70;;;7.50;99.90;;;;;;4885879;29;36120;-72
2022/11/27 11:04:21;;;;;;;17.70;7.80;;;7.50;99.90;;;;;;4893997;29;38453;-72
2022/11/27 11:06:49;;;;;;;19.48;9.77;;;7.50;99.90;;;;;;4905448;29;37972;-71
2022/11/27 11:09:30;;;;;;;26.60;8.97;;;7.50;99.90;;;;;;4915525;29;37951;-70
2022/11/27 11:12:17;;;;;;;19.03;8.07;;;7.50;99.90;;;;;;4915247;29;36785;-71
2022/11/27 11:14:55;;;;;;;19.27;10.80;;;7.50;99.90;;;;;;4924352;29;48229;-71
2022/11/27 11:17:36;;;;;;;20.07;8.87;;;7.50;99.90;;;;;;4909369;29;38474;-71
2022/11/27 11:20:34;;;;;;;19.03;9.30;;;7.50;99.90;;;;;;4905149;29;36949;-71
2022/11/27 11:23:00;;;;;;;21.80;11.17;;;7.50;99.90;;;;;;4887882;29;47148;-71
2022/11/27 11:25:26;;;;;;;20.27;9.33;;;7.50;99.90;;;;;;4913941;29;38850;-72
2022/11/27 11:27:52;;;;;;;17.70;9.10;;;7.50;99.90;;;;;;4894242;29;38712;-71
2022/11/27 11:30:25;;;;;;;29.47;12.17;;;7.40;99.90;;;;;;4904473;29;37712;-70
2022/11/27 11:33:01;;;;;;;20.58;9.23;;;7.50;99.90;;;;;;4882471;29;36476;-70
2022/11/27 11:35:33;;;;;;;18.97;9.70;;;7.50;99.90;;;;;;4898042;28;47818;-71
2022/11/27 11:38:02;;;;;;;31.40;14.57;;;7.50;99.90;;;;;;4919351;29;37871;-70
2022/11/27 11:40:33;;;;;;;46.40;25.77;;;7.50;99.90;;;;;;4899447;29;47113;-71
2022/11/27 11:43:03;;;;;;;21.02;11.77;;;7.50;99.90;;;;;;4909322;29;38742;-71
2022/11/27 11:45:30;;;;;;;16.10;9.40;;;7.50;99.90;;;;;;4918240;29;47335;-71
2022/11/27 11:48:02;;;;;;;18.50;9.30;;;7.50;99.90;;;;;;4918615;29;38320;-71
2022/11/27 11:50:33;;;;;;;19.88;9.70;;;7.50;99.90;;;;;;4889534;29;47337;-73
2022/11/27 11:53:19;;;;;;;21.50;10.40;;;7.50;99.90;;;;;;4906364;29;37342;-70
2022/11/27 11:56:12;;;;;;;25.63;9.43;;;7.50;99.90;;;;;;4889657;29;48356;-71
2022/11/27 11:58:41;;;;;;;20.80;10.35;;;7.50;99.90;;;;;;4907787;29;48613;-71
2022/11/27 12:01:10;;;;;;;18.87;9.20;;;7.50;99.90;;;;;;4908548;29;37834;-71
2022/11/27 12:03:36;;;;;;;17.17;10.30;;;7.50;99.90;;;;;;4899910;29;38273;-72
2022/11/27 12:06:02;;;;;;;24.27;11.47;;;7.50;99.90;;;;;;4897058;29;37377;-71
2022/11/27 12:08:46;;;;;;;16.47;9.40;;;7.50;99.90;;;;;;4903272;29;38139;-73
2022/11/27 12:11:28;;;;;;;15.77;8.63;;;7.50;99.90;;;;;;4896979;29;37213;-74
2022/11/27 12:14:30;;;;;;;15.90;9.68;;;7.50;99.90;;;;;;4904712;28;36718;-73
2022/11/27 12:17:38;;;;;;;15.70;9.10;;;7.50;99.90;;;;;;4872849;29;47055;-72
2022/11/27 12:20:34;;;;;;;17.37;10.10;;;7.60;99.90;;;;;;4905117;29;48125;-72
2022/11/27 12:23:21;;;;;;;17.40;10.13;;;7.50;99.90;;;;;;4895360;29;38246;-73
2022/11/27 12:26:14;;;;;;;21.27;9.90;;;7.50;99.90;;;;;;4882813;29;47280;-73
2022/11/27 12:28:55;;;;;;;15.77;9.27;;;7.60;99.90;;;;;;4879712;29;47442;-80
2022/11/27 12:31:43;;;;;;;15.87;9.47;;;7.50;99.90;;;;;;4890801;29;37596;-72
2022/11/27 12:34:38;;;;;;;16.30;9.90;;;7.60;99.90;;;;;;4896798;29;39168;-72
2022/11/27 12:37:17;;;;;;;18.20;9.43;;;7.50;99.90;;;;;;4885528;29;36595;-72
2022/11/27 12:40:06;;;;;;;14.27;9.07;;;7.50;99.90;;;;;;4899518;29;38905;-69
2022/11/27 12:42:36;;;;;;;19.83;8.87;;;7.60;99.90;;;;;;4860644;29;47496;-70
2022/11/27 12:45:22;;;;;;;14.83;8.97;;;7.50;99.90;;;;;;4885102;29;37402;-70
2022/11/27 12:48:00;;;;;;;16.63;9.17;;;7.50;99.90;;;;;;4884351;29;47079;-71
2022/11/27 12:50:39;;;;;;;20.27;8.97;;;7.60;99.90;;;;;;4894663;29;37808;-71
2022/11/27 12:53:16;;;;;;;17.60;8.90;;;7.50;99.90;;;;;;4890231;29;37378;-70
2022/11/27 12:55:47;;;;;;;21.67;9.63;;;7.50;99.90;;;;;;4906935;29;39135;-70
2022/11/27 12:58:26;;;;;;;19.40;9.53;;;7.50;99.90;;;;;;4905135;29;36939;-71
2022/11/27 13:01:02;;;;;;;17.07;8.70;;;7.50;99.90;;;;;;4895677;29;37600;-70
2022/11/27 13:03:45;;;;;;;20.47;10.00;;;7.50;99.90;;;;;;4898632;29;38366;-72
2022/11/27 13:06:16;;;;;;;16.67;9.50;;;7.60;99.90;;;;;;4885991;29;37977;-69
2022/11/27 13:08:54;;;;;;;18.93;10.33;;;7.50;99.90;;;;;;4898584;29;35854;-70
2022/11/27 13:11:26;;;;;;;21.03;10.13;;;7.50;99.90;;;;;;4892001;29;38837;-71